CET,Max TemperatureF,Mean TemperatureF,Min TemperatureF,Max Dew PointF,MeanDew PointF,Min DewpointF,Max Humidity, Mean Humidity, Min Humidity, Max Sea Level PressureIn, Mean Sea Level PressureIn, Min Sea Level PressureIn, Max VisibilityMiles, Mean VisibilityMiles, Min VisibilityMiles, Max Wind SpeedMPH, Mean Wind SpeedMPH, Max Gust SpeedMPH,PrecipitationIn, CloudCover, Events, WindDirDegrees
2012-11-1,51,48,44,50,43,36,100,87,71,29.68,29.48,29.39,6,4,2,18,12,29,0.00,7,Rain,164
2012-11-2,50,44,37,46,42,37,100,91,66,29.89,29.74,29.53,6,5,0,13,7,,0.00,5,Rain,197
2012-11-3,62,52,41,50,44,37,93,76,55,29.89,29.85,29.83,6,3,0,18,11,31,0.00,3,,196
2012-11-4,66,60,53,52,49,46,77,67,56,29.83,29.75,29.59,3,3,3,22,15,38,0.00,8,Rain,186
2012-11-5,64,52,39,54,46,39,100,87,63,29.80,29.60,29.42,6,5,0,20,14,31,0.00,7,Rain,282
2012-11-6,51,43,35,46,39,32,100,88,71,30.15,29.97,29.80,6,5,0,9,5,20,0.00,6,Rain,248
2012-11-7,50,40,30,41,36,30,100,79,54,30.33,30.23,30.15,6,6,6,11,4,,0.00,6,,226
2012-11-8,57,47,37,41,38,36,93,71,44,30.33,30.19,30.04,6,5,3,16,6,27,0.00,6,Rain,191
2012-11-9,53,43,33,43,38,32,100,86,54,30.15,30.11,30.04,6,5,3,16,4,27,0.00,3,Rain,15
2012-11-10,50,40,30,41,38,30,100,78,66,30.15,30.05,29.98,5,3,1,18,8,27,0.00,0,,166
2012-11-11,57,50,42,43,41,39,87,71,55,30.06,29.98,29.95,5,4,1,20,10,31,0.00,6,Rain,152
2012-11-12,50,48,46,48,47,45,100,95,82,30.33,30.21,30.06,6,3,0,7,3,,0.00,8,Fog-Rain,348
2012-11-13,55,44,33,48,45,34,100,94,77,30.48,30.41,30.33,5,2,0,11,4,,0.00,5,Fog-Rain,341
2012-11-14,46,37,28,41,34,28,100,93,66,30.51,30.47,30.42,6,2,0,4,2,,0.00,3,Fog,158
2012-11-15,50,42,35,41,38,34,100,91,71,30.42,30.33,30.27,6,3,2,9,3,,0.00,3,Fog,164
2012-11-16,48,44,41,43,41,39,100,86,76,30.30,30.25,30.21,6,4,2,9,4,,0.00,6,,155
2012-11-17,50,46,42,43,42,41,100,89,76,30.18,30.09,30.01,5,3,2,13,6,,0.00,5,,156
2012-11-18,51,46,41,46,44,39,100,88,76,30.06,30.02,29.98,5,3,2,9,4,,0.00,5,,162
2012-11-19,50,42,33,46,43,34,100,93,82,30.15,30.11,30.06,4,2,0,4,2,,0.00,5,Fog,2
2012-11-20,48,39,30,45,38,30,100,98,82,30.24,30.19,30.15,4,1,0,4,1,,0.00,3,Fog,292
2012-11-21,53,48,42,45,44,43,100,92,72,30.21,30.19,30.15,5,2,0,9,2,,0.00,6,Fog,140
2012-11-22,48,46,44,46,44,41,100,91,76,30.30,30.26,30.21,4,2,1,7,4,,0.00,6,,336
2012-11-23,48,45,42,48,45,43,100,98,87,30.27,30.23,30.21,3,2,0,7,1,,0.00,7,Fog-Rain,199
2012-11-24,51,48,44,46,46,45,100,92,82,30.24,30.22,30.18,5,2,0,11,5,,0.00,7,Fog,176
2012-11-25,51,48,44,46,45,43,100,89,76,30.15,30.13,30.09,4,3,2,9,6,,0.00,7,,159
2012-11-26,55,48,42,48,45,43,100,90,72,30.12,29.99,29.83,6,3,1,16,5,25,0.00,7,,142
2012-11-27,60,56,51,46,44,43,76,65,55,29.83,29.75,29.71,5,5,5,20,16,31,0.00,6,Rain,181
2012-11-28,62,56,51,46,45,43,77,67,55,29.71,29.55,29.36,6,4,2,22,12,31,0.00,7,Rain,151
2012-11-29,57,49,41,50,45,34,100,83,63,29.47,29.34,29.27,6,6,5,20,12,27,0.00,6,Rain,165
2012-11-30,42,38,35,34,32,30,87,76,65,29.86,29.67,29.50,6,6,3,18,11,29,0.00,7,Rain,347